Terminal Aerodrome Forecast
Issued by NWS

Home | Current Version | Previous Version | Text Only | Print | Product List | Glossary On
Versions: 1 2 3 4 5 6 7 8 9 10 11 12 13 14 15 16 17 18 19 20 21 22 23 24 25 26
000
FTUS44 KHGX 291140
TAFLBX
TAF
KLBX 291140Z 2912/3012 VRB03KT 3SM BR FEW015 SCT250
     FM291500 13008KT P6SM SCT025 SCT150 SCT250
     FM292000 14010KT P6SM SCT035
     FM300000 14006KT P6SM FEW040 SCT250
     FM300900 15003KT 4SM BR BKN250
      TEMPO 3009/3012 2SM BR BKN015=

USA.gov is the U.S. government's official web portal to all federal, state and local government web resources and services.